Terminal Aerodrome Forecast
Issued by NWS Jackson, MS

Home | Current Version | Previous Version | Text Only | Print | Product List | Glossary On
Versions: 1 2 3 4 5 6 7 8 9 10 11 12 13
442
FTUS44 KJAN 271743
TAFMEI
TAF
KMEI 271743Z 2718/2818 11004KT 4SM +RA SCT010 BKN025 OVC060
     FM271840 11006KT P6SM VCSH BKN050 BKN100
     FM280000 13006KT P6SM BKN020
     FM280400 16007KT P6SM OVC007
     FM280900 16009KT 4SM BR OVC007
     FM281600 18015KT P6SM BKN018=

USA.gov is the U.S. government's official web portal to all federal, state and local government web resources and services.